createdAt,value
2018-02-16T00:01:51.092Z,86.24
2018-02-16T00:05:03.779Z,86.46
2018-02-16T00:08:07.173Z,86.46
2018-02-16T00:11:10.572Z,86.35
2018-02-16T00:14:13.928Z,86.26
2018-02-16T00:17:18.028Z,86.42
2018-02-16T00:20:21.359Z,86.59
2018-02-16T00:23:24.748Z,86.60
2018-02-16T00:26:28.851Z,86.89
2018-02-16T00:29:32.685Z,86.72
2018-02-16T00:32:36.075Z,86.66
2018-02-16T00:35:40.185Z,86.18
2018-02-16T00:38:44.286Z,86.51
2018-02-16T00:41:47.677Z,85.95
2018-02-16T00:44:51.722Z,86.51
2018-02-16T00:47:55.838Z,86.32
2018-02-16T00:50:59.968Z,85.72
2018-02-16T00:54:03.337Z,85.04
2018-02-16T00:57:06.666Z,84.89
2018-02-16T01:00:12.493Z,84.53
2018-02-16T01:03:15.817Z,84.66
2018-02-16T01:06:19.929Z,84.70
2018-02-16T01:09:24.047Z,84.84
2018-02-16T01:12:29.098Z,85.63
2018-02-16T01:15:32.424Z,85.40
2018-02-16T01:18:35.798Z,85.72
2018-02-16T01:21:39.900Z,85.46
2018-02-16T01:24:44.092Z,86.85
2018-02-16T01:27:47.413Z,88.25
2018-02-16T01:30:51.513Z,87.47
2018-02-16T01:33:54.843Z,88.19
2018-02-16T01:36:59.242Z,88.63
2018-02-16T01:40:03.404Z,87.65
2018-02-16T01:43:06.746Z,87.85
2018-02-16T01:46:10.090Z,86.98
2018-02-16T01:49:13.677Z,86.61
2018-02-16T01:52:17.776Z,86.78
2018-02-16T01:55:21.893Z,86.65
2018-02-16T01:58:25.216Z,86.58
2018-02-16T02:01:29.709Z,87.08
2018-02-16T02:04:33.049Z,86.95
2018-02-16T02:07:36.393Z,86.71
2018-02-16T02:10:39.787Z,86.56
2018-02-16T02:13:43.141Z,86.26
2018-02-16T02:17:09.893Z,86.31
2018-02-16T02:20:14.884Z,85.88
2018-02-16T02:23:19.003Z,85.80
2018-02-16T02:26:22.404Z,85.90
2018-02-16T02:29:26.767Z,86.45
2018-02-16T02:32:30.120Z,86.47
2018-02-16T02:35:34.275Z,88.70
2018-02-16T02:38:37.660Z,88.29
2018-02-16T02:41:41.772Z,89.34
2018-02-16T02:44:45.097Z,89.40
2018-02-16T02:47:48.446Z,89.37
2018-02-16T02:50:52.575Z,89.15
2018-02-16T02:53:56.692Z,88.63
2018-02-16T02:57:00.236Z,88.67
2018-02-16T03:00:03.884Z,90.60
2018-02-16T03:03:07.248Z,90.45
2018-02-16T03:06:10.580Z,90.58
2018-02-16T03:09:13.908Z,90.48
2018-02-16T03:12:18.005Z,90.78
2018-02-16T03:15:22.280Z,90.67
2018-02-16T03:18:25.635Z,90.81
2018-02-16T03:21:28.964Z,90.89
2018-02-16T03:24:32.304Z,90.73
2018-02-16T03:27:35.777Z,90.79
2018-02-16T03:30:39.117Z,90.79
2018-02-16T03:33:42.459Z,90.91
2018-02-16T03:36:45.793Z,91.02
2018-02-16T03:39:49.942Z,91.08
2018-02-16T03:42:53.282Z,90.86
2018-02-16T03:45:56.611Z,90.83
2018-02-16T03:49:01.213Z,90.96
2018-02-16T03:52:04.571Z,90.79
2018-02-16T03:55:07.926Z,90.63
2018-02-16T03:58:11.266Z,90.47
2018-02-16T04:01:15.411Z,90.66
2018-02-16T04:04:18.837Z,90.54
2018-02-16T04:07:22.193Z,90.57
2018-02-16T04:10:25.517Z,90.38
2018-02-16T04:13:28.915Z,90.48
2018-02-16T04:16:32.306Z,90.36
2018-02-16T04:19:36.652Z,90.51
2018-02-16T04:22:40.033Z,90.46
2018-02-16T04:25:44.132Z,90.55
2018-02-16T04:28:47.489Z,90.47
2018-02-16T04:31:50.817Z,90.48
2018-02-16T04:34:54.918Z,90.32
2018-02-16T04:37:58.273Z,90.43
2018-02-16T04:41:02.672Z,90.44
2018-02-16T04:44:06.771Z,90.38
2018-02-16T04:47:10.117Z,90.36
2018-02-16T04:50:13.441Z,90.69
2018-02-16T04:53:16.804Z,90.49
2018-02-16T04:56:20.916Z,90.32
2018-02-16T04:59:25.026Z,90.24
2018-02-16T05:02:29.142Z,90.02
2018-02-16T05:05:34.153Z,89.96
2018-02-16T05:08:37.497Z,89.77
2018-02-16T05:11:40.837Z,89.72
2018-02-16T05:14:44.250Z,89.85
2018-02-16T05:17:47.615Z,89.70
2018-02-16T05:20:50.937Z,89.50
2018-02-16T05:23:54.273Z,89.62
2018-02-16T05:26:57.640Z,89.45
2018-02-16T05:30:01.336Z,89.63
2018-02-16T05:33:04.697Z,89.45
2018-02-16T05:36:08.101Z,89.71
2018-02-16T05:39:11.442Z,89.74
2018-02-16T05:42:14.777Z,89.56
2018-02-16T05:45:18.127Z,89.39
2018-02-16T05:48:21.509Z,89.72
2018-02-16T05:51:24.860Z,89.16
2018-02-16T05:54:28.220Z,89.74
2018-02-16T05:57:31.572Z,89.40
2018-02-16T06:00:34.944Z,89.40
2018-02-16T06:03:38.269Z,89.30
2018-02-16T06:06:42.390Z,89.43
2018-02-16T06:09:45.804Z,89.28
2018-02-16T06:12:49.191Z,89.14
2018-02-16T06:15:53.334Z,89.38
2018-02-16T06:18:57.471Z,89.66
2018-02-16T06:22:00.796Z,89.42
2018-02-16T06:25:05.364Z,89.90
2018-02-16T06:28:08.906Z,89.66
2018-02-16T06:31:12.246Z,89.78
2018-02-16T06:34:15.675Z,89.89
2018-02-16T06:37:19.053Z,89.71
2018-02-16T06:40:23.141Z,89.45
2018-02-16T06:43:26.485Z,89.15
2018-02-16T06:46:29.812Z,88.71
2018-02-16T06:49:33.151Z,88.78
2018-02-16T06:52:37.265Z,88.94
2018-02-16T06:55:41.418Z,89.12
2018-02-16T06:58:44.769Z,88.77
2018-02-16T07:01:48.134Z,88.71
2018-02-16T07:04:51.477Z,88.53
2018-02-16T07:07:54.814Z,88.50
2018-02-16T07:10:58.332Z,88.13
2018-02-16T07:14:01.673Z,88.20
2018-02-16T07:17:05.008Z,88.18
2018-02-16T07:20:08.356Z,87.97
2018-02-16T07:23:11.915Z,87.83
2018-02-16T07:26:15.320Z,87.68
2018-02-16T07:29:18.734Z,87.35
2018-02-16T07:32:22.085Z,87.34
2018-02-16T07:35:25.470Z,87.92
2018-02-16T07:38:28.797Z,87.21
2018-02-16T07:41:32.129Z,87.12
2018-02-16T07:44:35.464Z,86.68
2018-02-16T07:47:38.818Z,86.17
2018-02-16T07:50:42.156Z,86.21
2018-02-16T07:53:45.497Z,86.01
2018-02-16T07:56:48.815Z,85.57
2018-02-16T07:59:52.220Z,85.95
2018-02-16T08:02:55.553Z,85.89
2018-02-16T08:06:00.429Z,85.13
2018-02-16T08:09:03.785Z,85.02
2018-02-16T08:12:07.297Z,84.27
2018-02-16T08:15:11.404Z,84.35
2018-02-16T08:18:14.841Z,83.67
2018-02-16T08:21:18.947Z,84.16
2018-02-16T08:24:22.314Z,84.01
2018-02-16T08:27:25.717Z,83.45
2018-02-16T08:30:29.122Z,83.81
2018-02-16T08:33:32.516Z,83.16
2018-02-16T08:36:35.852Z,83.03
2018-02-16T08:39:40.663Z,84.19
2018-02-16T08:42:43.997Z,84.58
2018-02-16T08:45:47.337Z,84.57
2018-02-16T08:48:51.223Z,83.55
2018-02-16T08:51:54.583Z,84.45
2018-02-16T08:54:58.747Z,85.52
2018-02-16T08:58:02.083Z,85.33
2018-02-16T09:01:06.195Z,85.17
2018-02-16T09:04:10.724Z,84.86
2018-02-16T09:07:14.046Z,85.00
2018-02-16T09:10:18.157Z,84.21
2018-02-16T09:13:22.261Z,84.32
2018-02-16T09:16:25.881Z,84.35
2018-02-16T09:19:30.104Z,83.83
2018-02-16T09:22:33.593Z,83.34
2018-02-16T09:25:37.740Z,82.94
2018-02-16T09:28:41.524Z,83.84
2018-02-16T09:31:44.899Z,84.36
2018-02-16T09:34:48.271Z,83.80
2018-02-16T09:37:51.586Z,81.78
2018-02-16T09:40:54.940Z,83.27
2018-02-16T09:43:59.040Z,83.63
2018-02-16T09:47:03.142Z,83.92
2018-02-16T09:50:06.484Z,83.31
2018-02-16T09:53:09.883Z,82.44
2018-02-16T09:56:14.187Z,81.39
2018-02-16T09:59:17.592Z,81.63
2018-02-16T10:02:20.909Z,81.10
2018-02-16T10:05:24.976Z,81.75
2018-02-16T10:08:28.311Z,81.11
2018-02-16T10:11:31.813Z,80.96
2018-02-16T10:14:35.176Z,81.88
2018-02-16T10:17:38.529Z,81.76
2018-02-16T10:20:41.869Z,81.78
2018-02-16T10:23:45.505Z,81.73
2018-02-16T10:26:49.595Z,81.77
2018-02-16T10:29:53.047Z,81.06
2018-02-16T10:32:56.376Z,82.49
2018-02-16T10:35:59.711Z,80.88
2018-02-16T10:39:03.060Z,81.74
2018-02-16T10:42:06.529Z,81.22
2018-02-16T10:45:09.918Z,80.48
2018-02-16T10:48:14.548Z,80.47
2018-02-16T10:51:18.013Z,81.02
2018-02-16T10:54:21.365Z,81.24
2018-02-16T10:57:25.541Z,81.38
2018-02-16T11:00:35.281Z,81.21
2018-02-16T11:03:38.622Z,79.94
2018-02-16T11:06:47.549Z,79.40
2018-02-16T11:09:50.880Z,79.74
2018-02-16T11:12:54.217Z,80.54
2018-02-16T11:15:58.462Z,81.12
2018-02-16T11:19:01.797Z,81.38
2018-02-16T11:22:05.169Z,80.86
2018-02-16T11:25:08.516Z,81.04
2018-02-16T11:28:11.841Z,80.15
2018-02-16T11:31:17.197Z,80.81
2018-02-16T11:34:21.304Z,80.62
2018-02-16T11:37:25.405Z,78.84
2018-02-16T11:40:28.747Z,79.08
2018-02-16T11:43:32.076Z,78.97
2018-02-16T11:46:35.414Z,80.34
2018-02-16T11:49:39.500Z,80.48
2018-02-16T11:52:42.856Z,79.35
2018-02-16T11:55:48.379Z,78.92
2018-02-16T11:58:52.465Z,78.65
2018-02-16T12:01:55.798Z,78.78
2018-02-16T12:04:59.917Z,78.16
2018-02-16T12:08:04.116Z,78.30
2018-02-16T12:11:07.465Z,79.94
2018-02-16T12:14:10.785Z,80.38
2018-02-16T12:17:14.168Z,80.01
2018-02-16T12:20:19.376Z,78.97
2018-02-16T12:23:23.483Z,78.55
2018-02-16T12:26:27.589Z,79.37
2018-02-16T12:29:30.928Z,79.91
2018-02-16T12:32:34.257Z,80.52
2018-02-16T12:35:37.596Z,81.10
2018-02-16T12:38:41.708Z,80.32
2018-02-16T12:41:45.092Z,79.77
2018-02-16T12:44:50.429Z,81.83
2018-02-16T12:47:53.757Z,82.10
2018-02-16T12:50:57.861Z,80.83
2018-02-16T12:54:02.031Z,78.47
2018-02-16T12:57:05.349Z,79.77
2018-02-16T13:00:08.699Z,79.06
2018-02-16T13:03:12.054Z,78.08
2018-02-16T13:06:15.397Z,79.84
2018-02-16T13:09:20.738Z,80.77
2018-02-16T13:12:24.845Z,82.84
2018-02-16T13:15:28.955Z,81.99
2018-02-16T13:18:32.289Z,81.86
2018-02-16T13:21:35.609Z,80.98
2018-02-16T13:24:38.942Z,80.11
2018-02-16T13:27:42.268Z,80.77
2018-02-16T13:30:45.636Z,80.86
2018-02-16T13:33:48.974Z,80.48
2018-02-16T13:36:52.321Z,81.82
2018-02-16T13:39:55.644Z,79.94
2018-02-16T13:42:59.750Z,79.01
2018-02-16T13:46:03.081Z,81.33
2018-02-16T13:49:06.486Z,80.48
2018-02-16T13:52:09.819Z,79.60
2018-02-16T13:55:13.322Z,79.27
2018-02-16T13:58:16.703Z,77.60
2018-02-16T14:01:20.285Z,79.23
2018-02-16T14:04:38.294Z,77.88
2018-02-16T14:07:41.617Z,78.04
2018-02-16T14:10:44.985Z,77.79
2018-02-16T14:13:48.378Z,78.92
2018-02-16T14:16:51.823Z,77.35
2018-02-16T14:19:55.194Z,78.12
2018-02-16T14:22:58.744Z,77.85
2018-02-16T14:26:02.094Z,76.62
2018-02-16T14:29:06.254Z,77.14
2018-02-16T14:32:09.616Z,78.85
2018-02-16T14:35:12.979Z,79.04
2018-02-16T14:38:16.312Z,81.03
2018-02-16T14:41:20.434Z,81.41
2018-02-16T14:44:23.921Z,80.35
2018-02-16T14:47:27.250Z,81.43
2018-02-16T14:50:31.360Z,81.32
2018-02-16T14:53:35.449Z,82.14
2018-02-16T14:56:38.804Z,82.43
2018-02-16T14:59:42.189Z,82.63
2018-02-16T15:02:46.303Z,82.84
2018-02-16T15:05:50.413Z,83.22
2018-02-16T15:08:55.190Z,83.42
2018-02-16T15:11:58.560Z,83.16
2018-02-16T15:15:01.890Z,83.05
2018-02-16T15:18:05.396Z,83.35
2018-02-16T15:21:08.718Z,83.50
2018-02-16T15:24:12.045Z,83.53
2018-02-16T15:27:15.520Z,83.84
2018-02-16T15:30:18.860Z,84.31
2018-02-16T15:33:22.236Z,84.83
2018-02-16T15:36:25.669Z,84.80
2018-02-16T15:39:29.876Z,85.24
2018-02-16T15:42:33.211Z,85.35
2018-02-16T15:45:36.573Z,85.77
2018-02-16T15:48:41.117Z,85.78
2018-02-16T15:51:44.507Z,86.10
2018-02-16T15:54:47.867Z,86.44
2018-02-16T15:57:51.984Z,86.47
2018-02-16T16:00:55.410Z,86.24
2018-02-16T16:03:59.510Z,86.51
2018-02-16T16:07:02.858Z,86.50
2018-02-16T16:10:06.173Z,86.68
2018-02-16T16:13:09.632Z,86.47
2018-02-16T16:16:12.979Z,86.11
2018-02-16T16:19:17.114Z,86.68
2018-02-16T16:22:20.460Z,86.90
2018-02-16T16:25:23.863Z,86.80
2018-02-16T16:28:27.201Z,86.62
2018-02-16T16:31:30.643Z,86.04
2018-02-16T16:34:33.986Z,85.76
2018-02-16T16:37:37.374Z,85.59
2018-02-16T16:40:40.708Z,86.08
2018-02-16T16:43:44.845Z,85.98
2018-02-16T16:46:48.202Z,85.56
2018-02-16T16:49:51.671Z,84.83
2018-02-16T16:52:56.698Z,85.51
2018-02-16T16:56:00.080Z,84.96
2018-02-16T16:59:04.239Z,84.78
2018-02-16T17:02:07.981Z,84.85
2018-02-16T17:05:11.496Z,84.30
2018-02-16T17:08:15.032Z,84.57
2018-02-16T17:11:18.521Z,85.20
2018-02-16T17:14:23.101Z,84.94
2018-02-16T17:17:27.072Z,84.17
2018-02-16T17:20:30.576Z,85.00
2018-02-16T17:23:33.958Z,84.87
2018-02-16T17:26:39.045Z,85.65
2018-02-16T17:29:43.153Z,84.44
2018-02-16T17:32:46.501Z,84.23
2018-02-16T17:35:49.953Z,84.18
2018-02-16T17:38:53.376Z,84.45
2018-02-16T17:41:57.524Z,84.62
2018-02-16T17:45:00.896Z,85.15
2018-02-16T17:48:04.456Z,85.23
2018-02-16T17:51:07.800Z,84.60
2018-02-16T17:54:11.169Z,85.07
2018-02-16T17:57:14.556Z,84.97
2018-02-16T18:00:17.938Z,84.66
2018-02-16T18:03:21.354Z,84.58
2018-02-16T18:06:24.749Z,84.66
2018-02-16T18:09:28.613Z,84.45
2018-02-16T18:12:32.059Z,85.13
2018-02-16T18:15:35.511Z,85.13
2018-02-16T18:18:38.989Z,85.28
2018-02-16T18:21:42.408Z,85.04
2018-02-16T18:24:45.793Z,84.80
2018-02-16T18:27:49.150Z,84.90
2018-02-16T18:30:52.686Z,85.28
2018-02-16T18:33:56.073Z,85.54
2018-02-16T18:36:59.486Z,85.42
2018-02-16T18:40:02.865Z,85.52
2018-02-16T18:43:06.287Z,85.24
2018-02-16T18:46:19.949Z,85.51
2018-02-16T18:49:23.791Z,85.67
2018-02-16T18:52:27.195Z,85.31
2018-02-16T18:55:30.608Z,85.59
2018-02-16T18:58:34.102Z,85.54
2018-02-16T19:01:38.289Z,85.54
2018-02-16T19:04:41.661Z,85.06
2018-02-16T19:07:45.155Z,85.10
2018-02-16T19:10:48.550Z,85.36
2018-02-16T19:13:52.324Z,85.29
2018-02-16T19:16:57.777Z,84.98
2018-02-16T19:20:02.658Z,84.78
2018-02-16T19:23:06.013Z,84.89
2018-02-16T19:26:09.365Z,85.26
2018-02-16T19:29:12.706Z,85.44
2018-02-16T19:32:16.351Z,85.57
2018-02-16T19:35:20.075Z,85.62
2018-02-16T19:38:23.702Z,85.75
2018-02-16T19:41:27.290Z,85.53
2018-02-16T19:44:30.793Z,85.26
2018-02-16T19:47:35.047Z,85.40
2018-02-16T19:50:38.824Z,85.66
2018-02-16T19:53:43.369Z,85.49
2018-02-16T19:56:47.221Z,85.49
2018-02-16T19:59:51.059Z,85.57
2018-02-16T20:02:54.677Z,85.63
2018-02-16T20:05:58.120Z,85.82
2018-02-16T20:09:01.586Z,85.76
2018-02-16T20:12:05.305Z,85.59
2018-02-16T20:15:09.616Z,85.57
2018-02-16T20:18:14.284Z,85.21
2018-02-16T20:21:19.079Z,85.43
2018-02-16T20:24:22.776Z,85.70
2018-02-16T20:27:26.664Z,85.77
2018-02-16T20:30:32.254Z,86.25
2018-02-16T20:33:35.738Z,86.08
2018-02-16T20:36:39.938Z,85.82
2018-02-16T20:39:43.555Z,86.44
2018-02-16T20:42:47.969Z,86.47
2018-02-16T20:45:52.448Z,86.38
2018-02-16T20:48:55.905Z,86.21
2018-02-16T20:51:59.438Z,85.85
2018-02-16T20:55:03.056Z,85.69
2018-02-16T20:58:06.581Z,85.69
2018-02-16T21:01:10.810Z,85.47
2018-02-16T21:04:31.861Z,85.37
2018-02-16T21:07:37.671Z,85.21
2018-02-16T21:10:41.032Z,85.39
2018-02-16T21:13:44.408Z,85.65
2018-02-16T21:16:47.754Z,85.63
2018-02-16T21:19:51.085Z,85.59
2018-02-16T21:22:54.476Z,85.50
2018-02-16T21:25:57.816Z,85.31
2018-02-16T21:29:01.155Z,85.55
2018-02-16T21:32:04.569Z,86.01
2018-02-16T21:35:07.956Z,85.80
2018-02-16T21:38:12.084Z,85.66
2018-02-16T21:41:15.432Z,85.77
2018-02-16T21:44:18.752Z,86.12
2018-02-16T21:47:22.313Z,86.80
2018-02-16T21:50:25.666Z,86.65
2018-02-16T21:53:29.811Z,86.33
2018-02-16T21:56:33.682Z,85.95
2018-02-16T21:59:37.782Z,85.82
2018-02-16T22:02:41.321Z,85.96
2018-02-16T22:05:44.943Z,86.68
2018-02-16T22:08:49.345Z,86.34
2018-02-16T22:11:52.741Z,86.09
2018-02-16T22:14:56.836Z,86.74
2018-02-16T22:18:00.861Z,86.83
2018-02-16T22:21:04.274Z,86.89
2018-02-16T22:24:07.675Z,86.69
2018-02-16T22:27:11.778Z,86.97
2018-02-16T22:30:15.886Z,87.08
2018-02-16T22:33:19.429Z,87.47
2018-02-16T22:36:22.836Z,87.61
2018-02-16T22:39:26.766Z,87.47
2018-02-16T22:42:30.200Z,87.41
2018-02-16T22:45:35.577Z,87.05
2018-02-16T22:48:38.932Z,87.30
2018-02-16T22:51:42.314Z,87.17
2018-02-16T22:54:45.653Z,87.02
2018-02-16T22:57:48.992Z,86.63
2018-02-16T23:00:52.372Z,86.44
2018-02-16T23:03:56.533Z,86.70
2018-02-16T23:06:59.893Z,86.72
2018-02-16T23:10:03.362Z,86.83
2018-02-16T23:13:06.756Z,86.56
2018-02-16T23:16:10.099Z,86.38
2018-02-16T23:19:13.550Z,86.75
2018-02-16T23:22:17.673Z,86.77
2018-02-16T23:25:21.017Z,86.65
2018-02-16T23:28:24.401Z,87.11
2018-02-16T23:31:28.532Z,87.27
2018-02-16T23:34:31.877Z,87.66
2018-02-16T23:37:37.050Z,87.58
2018-02-16T23:40:41.179Z,87.65
2018-02-16T23:43:45.230Z,87.82
2018-02-16T23:46:48.564Z,88.05
2018-02-16T23:49:51.919Z,87.89
2018-02-16T23:52:55.353Z,88.00
2018-02-16T23:55:58.746Z,88.52
2018-02-16T23:59:02.106Z,89.07
